ΕΜΥ, Εθνική Μετεωρολογική Υπηρεσία - Δελτία Καιρού, Προγνώσεις

ΑΕΡΟΝΑΥΤΙΛΙΑ

GREEK AIRPORTS CODES

LGSR 021250Z 01010KT 9999 SCT025 21/14 Q1009 RMK HAND WIND ANEMOMETER OBSERVATION=

EUROPEAN AIRPORTS CODES